SNT weather

Las Cruces Airport
Sabana De Torres, Santander Department, Colombia

Public forecast

Using degrees Celsius for public forecast. Weather courtesy of forecast.io.

Closest aviation weather report (METAR) to Las Cruces Airport

Closest report is Palonegro Airport, 24.5 nm (45.4 km) SE. Retrieved 2019/10/22 13:00 UTC (19 minutes ago):

SKBG 221300Z 16004KT 3000 BCFG BKN005 SCT070 20/20 A3005

Closest aviation forecast (TAF) to Las Cruces Airport

Closest forecast is Palonegro Airport, 24.5 nm (45.4 km) SE. Retrieved 2019/10/22 12:33 UTC (46 minutes ago):

TAF TAF SKBG 221030Z 2212/2312 00000KT 0400 FG VV001 BECMG 2214/2216 33009KT 9999 NSW SCT016 TEMPO 2219/2223 4000 TSRA BCFG SCT008CB BKN070 BECMG 2300/2302 00000KT TX26/2219Z TN18/2311Z